sensor_id;sensor_type;location;lat;lon;timestamp;temperature;humidity
49032;DHT22;63443;48.366;10.876;2022-12-29T00:01:58;5.00;99.90
49032;DHT22;63443;48.366;10.876;2022-12-29T00:04:23;4.90;99.90
49032;DHT22;63443;48.366;10.876;2022-12-29T00:06:49;4.90;99.90
49032;DHT22;63443;48.366;10.876;2022-12-29T00:09:15;4.90;99.90
49032;DHT22;63443;48.366;10.876;2022-12-29T00:11:41;5.00;99.90
49032;DHT22;63443;48.366;10.876;2022-12-29T00:14:08;5.00;99.90
49032;DHT22;63443;48.366;10.876;2022-12-29T00:16:52;5.00;99.90
49032;DHT22;63443;48.366;10.876;2022-12-29T00:19:17;5.10;99.90
49032;DHT22;63443;48.366;10.876;2022-12-29T00:22:01;5.10;99.90
49032;DHT22;63443;48.366;10.876;2022-12-29T00:24:45;5.10;99.90
49032;DHT22;63443;48.366;10.876;2022-12-29T00:27:27;5.10;99.90
49032;DHT22;63443;48.366;10.876;2022-12-29T00:30:11;5.10;99.90
49032;DHT22;63443;48.366;10.876;2022-12-29T00:32:56;5.00;99.90
49032;DHT22;63443;48.366;10.876;2022-12-29T00:35:53;5.00;99.90
49032;DHT22;63443;48.366;10.876;2022-12-29T00:38:19;4.90;99.90
49032;DHT22;63443;48.366;10.876;2022-12-29T00:41:04;4.80;99.90
49032;DHT22;63443;48.366;10.876;2022-12-29T00:43:48;4.80;99.90
49032;DHT22;63443;48.366;10.876;2022-12-29T00:46:39;4.80;99.90
49032;DHT22;63443;48.366;10.876;2022-12-29T00:49:05;4.80;99.90
49032;DHT22;63443;48.366;10.876;2022-12-29T00:51:49;4.70;99.90
49032;DHT22;63443;48.366;10.876;2022-12-29T00:54:15;4.70;99.90
49032;DHT22;63443;48.366;10.876;2022-12-29T00:56:40;4.70;99.90
49032;DHT22;63443;48.366;10.876;2022-12-29T00:59:07;4.70;99.90
49032;DHT22;63443;48.366;10.876;2022-12-29T01:01:33;4.70;99.90
49032;DHT22;63443;48.366;10.876;2022-12-29T01:03:59;4.70;99.90
49032;DHT22;63443;48.366;10.876;2022-12-29T01:06:25;4.60;99.90
49032;DHT22;63443;48.366;10.876;2022-12-29T01:08:50;4.60;99.90
49032;DHT22;63443;48.366;10.876;2022-12-29T01:11:36;4.50;99.90
49032;DHT22;63443;48.366;10.876;2022-12-29T01:14:02;4.60;99.90
49032;DHT22;63443;48.366;10.876;2022-12-29T01:16:27;4.60;99.90
49032;DHT22;63443;48.366;10.876;2022-12-29T01:18:53;4.60;99.90
49032;DHT22;63443;48.366;10.876;2022-12-29T01:21:18;4.60;99.90
49032;DHT22;63443;48.366;10.876;2022-12-29T01:23:44;4.60;99.90
49032;DHT22;63443;48.366;10.876;2022-12-29T01:26:10;4.50;99.90
49032;DHT22;63443;48.366;10.876;2022-12-29T01:28:36;4.50;99.90
49032;DHT22;63443;48.366;10.876;2022-12-29T01:31:04;4.50;99.90
49032;DHT22;63443;48.366;10.876;2022-12-29T01:33:29;4.60;99.90
49032;DHT22;63443;48.366;10.876;2022-12-29T01:35:59;4.60;99.90
49032;DHT22;63443;48.366;10.876;2022-12-29T01:38:24;4.70;99.90
49032;DHT22;63443;48.366;10.876;2022-12-29T01:40:50;4.70;99.90
49032;DHT22;63443;48.366;10.876;2022-12-29T01:43:15;4.80;99.90
49032;DHT22;63443;48.366;10.876;2022-12-29T01:45:45;4.90;99.90
49032;DHT22;63443;48.366;10.876;2022-12-29T01:48:12;4.90;99.90
49032;DHT22;63443;48.366;10.876;2022-12-29T01:50:43;4.90;99.90
49032;DHT22;63443;48.366;10.876;2022-12-29T01:53:15;4.90;99.90
49032;DHT22;63443;48.366;10.876;2022-12-29T01:55:42;4.90;99.90
49032;DHT22;63443;48.366;10.876;2022-12-29T01:58:09;4.90;99.90
49032;DHT22;63443;48.366;10.876;2022-12-29T02:00:36;4.90;99.90
49032;DHT22;63443;48.366;10.876;2022-12-29T02:03:02;4.90;99.90
49032;DHT22;63443;48.366;10.876;2022-12-29T02:05:43;5.00;99.90
49032;DHT22;63443;48.366;10.876;2022-12-29T02:08:11;5.00;99.90
49032;DHT22;63443;48.366;10.876;2022-12-29T02:10:36;5.00;99.90
49032;DHT22;63443;48.366;10.876;2022-12-29T02:13:02;5.00;99.90
49032;DHT22;63443;48.366;10.876;2022-12-29T02:15:35;5.00;99.90
49032;DHT22;63443;48.366;10.876;2022-12-29T02:20:50;5.10;99.90
49032;DHT22;63443;48.366;10.876;2022-12-29T02:28:52;5.10;99.90
49032;DHT22;63443;48.366;10.876;2022-12-29T02:31:30;5.10;99.90
49032;DHT22;63443;48.366;10.876;2022-12-29T02:39:20;5.30;99.90
49032;DHT22;63443;48.366;10.876;2022-12-29T02:44:14;5.30;99.90
49032;DHT22;63443;48.366;10.876;2022-12-29T02:46:44;5.30;99.90
49032;DHT22;63443;48.366;10.876;2022-12-29T02:51:51;5.40;99.90
49032;DHT22;63443;48.366;10.876;2022-12-29T02:54:20;5.40;99.90
49032;DHT22;63443;48.366;10.876;2022-12-29T02:59:45;5.40;99.90
49032;DHT22;63443;48.366;10.876;2022-12-29T03:02:21;5.40;99.90
49032;DHT22;63443;48.366;10.876;2022-12-29T03:07:35;5.40;99.90
49032;DHT22;63443;48.366;10.876;2022-12-29T03:10:06;5.40;99.90
49032;DHT22;63443;48.366;10.876;2022-12-29T03:12:41;5.50;99.90
49032;DHT22;63443;48.366;10.876;2022-12-29T03:15:34;5.50;99.90
49032;DHT22;63443;48.366;10.876;2022-12-29T03:18:22;5.50;99.90
49032;DHT22;63443;48.366;10.876;2022-12-29T03:20:51;5.40;99.90
49032;DHT22;63443;48.366;10.876;2022-12-29T03:23:17;5.50;99.90
49032;DHT22;63443;48.366;10.876;2022-12-29T03:25:46;5.50;99.90
49032;DHT22;63443;48.366;10.876;2022-12-29T03:28:13;5.50;99.90
49032;DHT22;63443;48.366;10.876;2022-12-29T03:30:41;5.50;99.90
49032;DHT22;63443;48.366;10.876;2022-12-29T03:33:07;5.50;99.90
49032;DHT22;63443;48.366;10.876;2022-12-29T03:35:35;5.50;99.90
49032;DHT22;63443;48.366;10.876;2022-12-29T03:38:06;5.50;99.90
49032;DHT22;63443;48.366;10.876;2022-12-29T03:40:36;5.60;99.90
49032;DHT22;63443;48.366;10.876;2022-12-29T03:43:02;5.60;99.90
49032;DHT22;63443;48.366;10.876;2022-12-29T03:45:28;5.60;99.90
49032;DHT22;63443;48.366;10.876;2022-12-29T03:47:53;5.70;99.90
49032;DHT22;63443;48.366;10.876;2022-12-29T03:50:19;5.70;99.90
49032;DHT22;63443;48.366;10.876;2022-12-29T03:52:44;5.70;99.90
49032;DHT22;63443;48.366;10.876;2022-12-29T03:55:10;5.70;99.90
49032;DHT22;63443;48.366;10.876;2022-12-29T03:57:35;5.70;99.90
49032;DHT22;63443;48.366;10.876;2022-12-29T04:00:01;5.70;99.90
49032;DHT22;63443;48.366;10.876;2022-12-29T04:02:26;5.80;99.90
49032;DHT22;63443;48.366;10.876;2022-12-29T04:04:52;5.80;99.90
49032;DHT22;63443;48.366;10.876;2022-12-29T04:07:18;5.90;99.90
49032;DHT22;63443;48.366;10.876;2022-12-29T04:09:43;5.90;99.90
49032;DHT22;63443;48.366;10.876;2022-12-29T04:12:08;5.90;99.90
49032;DHT22;63443;48.366;10.876;2022-12-29T04:14:34;6.00;99.90
49032;DHT22;63443;48.366;10.876;2022-12-29T04:16:59;6.00;99.90
49032;DHT22;63443;48.366;10.876;2022-12-29T04:19:25;6.10;99.70
49032;DHT22;63443;48.366;10.876;2022-12-29T04:21:50;6.20;99.50
49032;DHT22;63443;48.366;10.876;2022-12-29T04:24:16;6.30;99.30
49032;DHT22;63443;48.366;10.876;2022-12-29T04:26:41;6.40;98.80
49032;DHT22;63443;48.366;10.876;2022-12-29T04:29:07;6.50;98.40
49032;DHT22;63443;48.366;10.876;2022-12-29T04:31:32;6.60;98.40
49032;DHT22;63443;48.366;10.876;2022-12-29T04:33:58;6.60;98.40
49032;DHT22;63443;48.366;10.876;2022-12-29T04:36:25;6.70;97.80
49032;DHT22;63443;48.366;10.876;2022-12-29T04:38:50;6.70;97.80
49032;DHT22;63443;48.366;10.876;2022-12-29T04:41:16;6.80;97.60
49032;DHT22;63443;48.366;10.876;2022-12-29T04:43:41;6.80;97.70
49032;DHT22;63443;48.366;10.876;2022-12-29T04:46:07;6.80;97.70
49032;DHT22;63443;48.366;10.876;2022-12-29T04:48:32;6.80;97.80
49032;DHT22;63443;48.366;10.876;2022-12-29T04:50:58;6.70;97.70
49032;DHT22;63443;48.366;10.876;2022-12-29T04:53:23;6.80;97.50
49032;DHT22;63443;48.366;10.876;2022-12-29T04:55:49;6.80;97.20
49032;DHT22;63443;48.366;10.876;2022-12-29T04:58:15;6.80;97.30
49032;DHT22;63443;48.366;10.876;2022-12-29T05:00:41;6.80;97.10
49032;DHT22;63443;48.366;10.876;2022-12-29T05:03:06;7.00;96.40
49032;DHT22;63443;48.366;10.876;2022-12-29T05:05:32;7.20;95.60
49032;DHT22;63443;48.366;10.876;2022-12-29T05:07:57;7.20;95.40
49032;DHT22;63443;48.366;10.876;2022-12-29T05:10:22;7.40;94.40
49032;DHT22;63443;48.366;10.876;2022-12-29T05:12:48;7.60;93.80
49032;DHT22;63443;48.366;10.876;2022-12-29T05:15:13;7.90;92.90
49032;DHT22;63443;48.366;10.876;2022-12-29T05:17:39;8.10;91.70
49032;DHT22;63443;48.366;10.876;2022-12-29T05:20:05;8.10;91.40
49032;DHT22;63443;48.366;10.876;2022-12-29T05:22:30;8.10;91.00
49032;DHT22;63443;48.366;10.876;2022-12-29T05:24:56;8.20;91.00
49032;DHT22;63443;48.366;10.876;2022-12-29T05:27:21;8.20;90.50
49032;DHT22;63443;48.366;10.876;2022-12-29T05:29:47;8.30;90.10
49032;DHT22;63443;48.366;10.876;2022-12-29T05:32:12;8.40;89.40
49032;DHT22;63443;48.366;10.876;2022-12-29T05:34:37;8.40;89.30
49032;DHT22;63443;48.366;10.876;2022-12-29T05:37:03;8.40;89.10
49032;DHT22;63443;48.366;10.876;2022-12-29T05:39:29;8.50;88.40
49032;DHT22;63443;48.366;10.876;2022-12-29T05:41:54;8.50;88.40
49032;DHT22;63443;48.366;10.876;2022-12-29T05:44:20;8.40;88.80
49032;DHT22;63443;48.366;10.876;2022-12-29T05:46:45;8.40;89.20
49032;DHT22;63443;48.366;10.876;2022-12-29T05:49:11;8.40;89.50
49032;DHT22;63443;48.366;10.876;2022-12-29T05:51:36;8.40;89.60
49032;DHT22;63443;48.366;10.876;2022-12-29T05:54:02;8.40;90.00
49032;DHT22;63443;48.366;10.876;2022-12-29T05:56:27;8.40;89.80
49032;DHT22;63443;48.366;10.876;2022-12-29T05:58:53;8.60;89.50
49032;DHT22;63443;48.366;10.876;2022-12-29T06:01:18;8.70;89.10
49032;DHT22;63443;48.366;10.876;2022-12-29T06:03:43;8.80;88.60
49032;DHT22;63443;48.366;10.876;2022-12-29T06:06:09;8.80;88.70
49032;DHT22;63443;48.366;10.876;2022-12-29T06:08:34;8.80;88.40
49032;DHT22;63443;48.366;10.876;2022-12-29T06:11:00;8.80;88.40
49032;DHT22;63443;48.366;10.876;2022-12-29T06:13:25;8.80;88.80
49032;DHT22;63443;48.366;10.876;2022-12-29T06:15:51;8.80;89.50
49032;DHT22;63443;48.366;10.876;2022-12-29T06:18:16;8.80;90.00
49032;DHT22;63443;48.366;10.876;2022-12-29T06:20:42;8.70;90.20
49032;DHT22;63443;48.366;10.876;2022-12-29T06:23:07;8.70;90.40
49032;DHT22;63443;48.366;10.876;2022-12-29T06:25:33;8.80;90.40
49032;DHT22;63443;48.366;10.876;2022-12-29T06:27:59;8.70;90.50
49032;DHT22;63443;48.366;10.876;2022-12-29T06:30:25;8.80;90.60
49032;DHT22;63443;48.366;10.876;2022-12-29T06:32:50;8.80;90.80
49032;DHT22;63443;48.366;10.876;2022-12-29T06:35:16;8.80;90.80
49032;DHT22;63443;48.366;10.876;2022-12-29T06:37:42;8.80;91.10
49032;DHT22;63443;48.366;10.876;2022-12-29T06:40:08;8.60;91.40
49032;DHT22;63443;48.366;10.876;2022-12-29T06:42:34;8.60;91.70
49032;DHT22;63443;48.366;10.876;2022-12-29T06:44:59;8.60;91.80
49032;DHT22;63443;48.366;10.876;2022-12-29T06:47:25;8.50;92.20
49032;DHT22;63443;48.366;10.876;2022-12-29T06:49:51;8.60;92.40
49032;DHT22;63443;48.366;10.876;2022-12-29T06:52:16;8.60;92.60
49032;DHT22;63443;48.366;10.876;2022-12-29T06:54:42;8.60;92.80
49032;DHT22;63443;48.366;10.876;2022-12-29T06:57:07;8.60;93.10
49032;DHT22;63443;48.366;10.876;2022-12-29T06:59:33;8.60;93.20
49032;DHT22;63443;48.366;10.876;2022-12-29T07:01:58;8.70;93.10
49032;DHT22;63443;48.366;10.876;2022-12-29T07:04:23;8.80;93.00
49032;DHT22;63443;48.366;10.876;2022-12-29T07:06:49;8.80;93.10
49032;DHT22;63443;48.366;10.876;2022-12-29T07:09:14;8.70;93.30
49032;DHT22;63443;48.366;10.876;2022-12-29T07:11:40;8.70;93.30
49032;DHT22;63443;48.366;10.876;2022-12-29T07:14:05;8.90;93.20
49032;DHT22;63443;48.366;10.876;2022-12-29T07:16:31;8.90;93.10
49032;DHT22;63443;48.366;10.876;2022-12-29T07:18:57;9.00;93.20
49032;DHT22;63443;48.366;10.876;2022-12-29T07:21:24;8.90;93.30
49032;DHT22;63443;48.366;10.876;2022-12-29T07:23:49;9.00;93.20
49032;DHT22;63443;48.366;10.876;2022-12-29T07:26:15;9.00;93.10
49032;DHT22;63443;48.366;10.876;2022-12-29T07:28:42;9.10;92.90
49032;DHT22;63443;48.366;10.876;2022-12-29T07:31:14;9.10;92.80
49032;DHT22;63443;48.366;10.876;2022-12-29T07:33:41;9.10;92.80
49032;DHT22;63443;48.366;10.876;2022-12-29T07:36:06;9.10;92.80
49032;DHT22;63443;48.366;10.876;2022-12-29T07:38:32;9.20;92.60
49032;DHT22;63443;48.366;10.876;2022-12-29T07:40:57;9.20;92.70
49032;DHT22;63443;48.366;10.876;2022-12-29T07:43:23;9.20;92.70
49032;DHT22;63443;48.366;10.876;2022-12-29T07:45:49;9.30;92.60
49032;DHT22;63443;48.366;10.876;2022-12-29T07:48:14;9.40;92.60
49032;DHT22;63443;48.366;10.876;2022-12-29T07:50:40;9.30;92.60
49032;DHT22;63443;48.366;10.876;2022-12-29T07:53:05;9.40;92.60
49032;DHT22;63443;48.366;10.876;2022-12-29T07:55:31;9.40;92.50
49032;DHT22;63443;48.366;10.876;2022-12-29T07:57:56;9.50;92.40
49032;DHT22;63443;48.366;10.876;2022-12-29T08:00:22;9.60;92.30
49032;DHT22;63443;48.366;10.876;2022-12-29T08:02:47;9.60;92.40
49032;DHT22;63443;48.366;10.876;2022-12-29T08:05:13;9.60;92.40
49032;DHT22;63443;48.366;10.876;2022-12-29T08:07:38;9.60;92.50
49032;DHT22;63443;48.366;10.876;2022-12-29T08:10:04;9.70;92.40
49032;DHT22;63443;48.366;10.876;2022-12-29T08:12:30;9.70;92.20
49032;DHT22;63443;48.366;10.876;2022-12-29T08:14:55;9.80;92.00
49032;DHT22;63443;48.366;10.876;2022-12-29T08:17:21;9.80;92.10
49032;DHT22;63443;48.366;10.876;2022-12-29T08:19:46;9.90;91.60
49032;DHT22;63443;48.366;10.876;2022-12-29T08:22:13;10.00;91.50
49032;DHT22;63443;48.366;10.876;2022-12-29T08:24:38;10.00;91.40
49032;DHT22;63443;48.366;10.876;2022-12-29T08:27:04;10.00;91.40
49032;DHT22;63443;48.366;10.876;2022-12-29T08:29:29;10.00;91.50
49032;DHT22;63443;48.366;10.876;2022-12-29T08:31:55;10.00;91.40
49032;DHT22;63443;48.366;10.876;2022-12-29T08:34:20;10.00;91.50
49032;DHT22;63443;48.366;10.876;2022-12-29T08:36:46;10.10;91.50
49032;DHT22;63443;48.366;10.876;2022-12-29T08:39:11;10.20;91.60
49032;DHT22;63443;48.366;10.876;2022-12-29T08:41:37;10.20;91.60
49032;DHT22;63443;48.366;10.876;2022-12-29T08:44:02;10.20;91.50
49032;DHT22;63443;48.366;10.876;2022-12-29T08:46:28;10.30;91.60
49032;DHT22;63443;48.366;10.876;2022-12-29T08:48:53;10.30;91.50
49032;DHT22;63443;48.366;10.876;2022-12-29T08:51:19;10.40;91.50
49032;DHT22;63443;48.366;10.876;2022-12-29T08:53:44;10.40;91.50
49032;DHT22;63443;48.366;10.876;2022-12-29T08:56:09;10.50;91.50
49032;DHT22;63443;48.366;10.876;2022-12-29T08:58:36;10.50;91.60
49032;DHT22;63443;48.366;10.876;2022-12-29T09:01:02;10.40;91.70
49032;DHT22;63443;48.366;10.876;2022-12-29T09:03:28;10.40;91.90
49032;DHT22;63443;48.366;10.876;2022-12-29T09:05:54;10.40;92.00
49032;DHT22;63443;48.366;10.876;2022-12-29T09:08:19;10.40;92.00
49032;DHT22;63443;48.366;10.876;2022-12-29T09:10:45;10.40;92.20
49032;DHT22;63443;48.366;10.876;2022-12-29T09:13:11;10.50;92.20
49032;DHT22;63443;48.366;10.876;2022-12-29T09:15:37;10.40;92.40
49032;DHT22;63443;48.366;10.876;2022-12-29T09:18:03;10.40;92.40
49032;DHT22;63443;48.366;10.876;2022-12-29T09:20:28;10.40;92.50
49032;DHT22;63443;48.366;10.876;2022-12-29T09:22:54;10.50;92.50
49032;DHT22;63443;48.366;10.876;2022-12-29T09:25:19;10.50;92.40
49032;DHT22;63443;48.366;10.876;2022-12-29T09:27:46;10.60;92.30
49032;DHT22;63443;48.366;10.876;2022-12-29T09:30:13;10.60;92.20
49032;DHT22;63443;48.366;10.876;2022-12-29T09:32:39;10.50;92.40
49032;DHT22;63443;48.366;10.876;2022-12-29T09:35:05;10.60;92.70
49032;DHT22;63443;48.366;10.876;2022-12-29T09:37:30;10.70;92.20
49032;DHT22;63443;48.366;10.876;2022-12-29T09:39:56;10.70;92.10
49032;DHT22;63443;48.366;10.876;2022-12-29T09:47:24;10.80;91.50
49032;DHT22;63443;48.366;10.876;2022-12-29T09:49:54;10.90;91.40
49032;DHT22;63443;48.366;10.876;2022-12-29T09:52:22;11.00;91.20
49032;DHT22;63443;48.366;10.876;2022-12-29T09:54:52;11.00;90.90
49032;DHT22;63443;48.366;10.876;2022-12-29T09:57:26;11.00;90.70
49032;DHT22;63443;48.366;10.876;2022-12-29T09:59:57;11.00;90.70
49032;DHT22;63443;48.366;10.876;2022-12-29T10:02:27;11.20;90.10
49032;DHT22;63443;48.366;10.876;2022-12-29T10:04:54;11.40;89.50
49032;DHT22;63443;48.366;10.876;2022-12-29T10:07:27;11.40;89.30
49032;DHT22;63443;48.366;10.876;2022-12-29T10:12:33;11.30;89.60
49032;DHT22;63443;48.366;10.876;2022-12-29T10:15:03;11.60;89.00
49032;DHT22;63443;48.366;10.876;2022-12-29T10:25:21;12.20;86.10
49032;DHT22;63443;48.366;10.876;2022-12-29T10:27:50;12.00;87.20
49032;DHT22;63443;48.366;10.876;2022-12-29T10:30:17;12.00;86.70
49032;DHT22;63443;48.366;10.876;2022-12-29T10:32:47;11.90;86.50
49032;DHT22;63443;48.366;10.876;2022-12-29T10:35:16;12.00;86.80
49032;DHT22;63443;48.366;10.876;2022-12-29T10:37:45;12.10;86.40
49032;DHT22;63443;48.366;10.876;2022-12-29T10:40:18;12.10;85.80
49032;DHT22;63443;48.366;10.876;2022-12-29T10:42:46;12.20;84.80
49032;DHT22;63443;48.366;10.876;2022-12-29T10:45:13;12.30;84.50
49032;DHT22;63443;48.366;10.876;2022-12-29T10:47:42;12.20;84.40
49032;DHT22;63443;48.366;10.876;2022-12-29T10:50:12;12.10;84.90
49032;DHT22;63443;48.366;10.876;2022-12-29T10:52:38;12.10;84.60
49032;DHT22;63443;48.366;10.876;2022-12-29T10:55:24;12.20;84.40
49032;DHT22;63443;48.366;10.876;2022-12-29T13:15:00;13.40;76.00
49032;DHT22;63443;48.366;10.876;2022-12-29T13:17:41;13.20;76.90
49032;DHT22;63443;48.366;10.876;2022-12-29T13:22:55;13.00;79.00
49032;DHT22;63443;48.366;10.876;2022-12-29T14:28:54;11.70;91.60
49032;DHT22;63443;48.366;10.876;2022-12-29T14:42:11;11.70;91.50
49032;DHT22;63443;48.366;10.876;2022-12-29T14:44:47;11.60;91.60
49032;DHT22;63443;48.366;10.876;2022-12-29T14:47:16;11.60;91.90
49032;DHT22;63443;48.366;10.876;2022-12-29T14:49:43;11.50;91.80
49032;DHT22;63443;48.366;10.876;2022-12-29T14:52:13;11.40;92.00
49032;DHT22;63443;48.366;10.876;2022-12-29T14:54:41;11.40;92.00
49032;DHT22;63443;48.366;10.876;2022-12-29T14:57:10;11.40;92.20
49032;DHT22;63443;48.366;10.876;2022-12-29T14:59:38;11.40;92.40
49032;DHT22;63443;48.366;10.876;2022-12-29T15:02:05;11.30;92.60
49032;DHT22;63443;48.366;10.876;2022-12-29T15:04:38;11.30;92.80
49032;DHT22;63443;48.366;10.876;2022-12-29T15:07:07;11.30;92.90
49032;DHT22;63443;48.366;10.876;2022-12-29T15:09:35;11.20;93.00
49032;DHT22;63443;48.366;10.876;2022-12-29T15:14:49;11.20;93.40
49032;DHT22;63443;48.366;10.876;2022-12-29T15:17:24;11.10;93.60
49032;DHT22;63443;48.366;10.876;2022-12-29T15:19:50;11.10;93.90
49032;DHT22;63443;48.366;10.876;2022-12-29T15:22:16;11.10;94.10
49032;DHT22;63443;48.366;10.876;2022-12-29T15:24:42;11.00;94.30
49032;DHT22;63443;48.366;10.876;2022-12-29T15:27:10;11.00;94.40
49032;DHT22;63443;48.366;10.876;2022-12-29T15:29:39;10.90;94.70
49032;DHT22;63443;48.366;10.876;2022-12-29T15:34:39;10.80;95.30
49032;DHT22;63443;48.366;10.876;2022-12-29T15:37:06;10.70;95.70
49032;DHT22;63443;48.366;10.876;2022-12-29T15:39:31;10.70;96.00
49032;DHT22;63443;48.366;10.876;2022-12-29T15:42:09;10.80;96.00
49032;DHT22;63443;48.366;10.876;2022-12-29T15:44:41;10.80;96.20
49032;DHT22;63443;48.366;10.876;2022-12-29T15:47:14;10.70;96.50
49032;DHT22;63443;48.366;10.876;2022-12-29T15:49:42;10.60;96.80
49032;DHT22;63443;48.366;10.876;2022-12-29T15:52:08;10.50;97.10
49032;DHT22;63443;48.366;10.876;2022-12-29T15:54:34;10.50;97.50
49032;DHT22;63443;48.366;10.876;2022-12-29T15:57:00;10.40;97.80
49032;DHT22;63443;48.366;10.876;2022-12-29T15:59:26;10.40;97.90
49032;DHT22;63443;48.366;10.876;2022-12-29T16:01:53;10.50;98.00
49032;DHT22;63443;48.366;10.876;2022-12-29T16:04:19;10.50;98.60
49032;DHT22;63443;48.366;10.876;2022-12-29T16:06:54;10.60;98.30
49032;DHT22;63443;48.366;10.876;2022-12-29T16:09:29;10.60;98.30
49032;DHT22;63443;48.366;10.876;2022-12-29T16:11:55;10.70;98.70
49032;DHT22;63443;48.366;10.876;2022-12-29T16:16:57;10.80;98.30
49032;DHT22;63443;48.366;10.876;2022-12-29T16:21:58;10.70;98.40
49032;DHT22;63443;48.366;10.876;2022-12-29T16:24:25;10.70;98.50
49032;DHT22;63443;48.366;10.876;2022-12-29T16:27:25;10.60;98.60
49032;DHT22;63443;48.366;10.876;2022-12-29T16:29:43;10.60;98.70
49032;DHT22;63443;48.366;10.876;2022-12-29T16:32:25;10.50;98.80
49032;DHT22;63443;48.366;10.876;2022-12-29T16:35:16;10.50;98.90
49032;DHT22;63443;48.366;10.876;2022-12-29T16:37:38;10.60;98.70
49032;DHT22;63443;48.366;10.876;2022-12-29T16:43:00;10.50;98.80
49032;DHT22;63443;48.366;10.876;2022-12-29T16:50:33;10.40;99.00
49032;DHT22;63443;48.366;10.876;2022-12-29T16:52:59;10.30;99.00
49032;DHT22;63443;48.366;10.876;2022-12-29T16:55:24;10.30;99.00
49032;DHT22;63443;48.366;10.876;2022-12-29T16:57:50;10.30;99.10
49032;DHT22;63443;48.366;10.876;2022-12-29T17:00:20;10.30;99.10
49032;DHT22;63443;48.366;10.876;2022-12-29T17:02:46;10.30;99.10
49032;DHT22;63443;48.366;10.876;2022-12-29T17:05:12;10.20;99.20
49032;DHT22;63443;48.366;10.876;2022-12-29T17:07:38;10.10;99.50
49032;DHT22;63443;48.366;10.876;2022-12-29T17:10:03;10.20;99.40
49032;DHT22;63443;48.366;10.876;2022-12-29T17:12:29;10.10;99.50
49032;DHT22;63443;48.366;10.876;2022-12-29T17:14:56;10.00;99.70
49032;DHT22;63443;48.366;10.876;2022-12-29T17:17:35;10.10;99.90
49032;DHT22;63443;48.366;10.876;2022-12-29T17:20:04;10.10;99.80
49032;DHT22;63443;48.366;10.876;2022-12-29T17:22:30;10.10;99.90
49032;DHT22;63443;48.366;10.876;2022-12-29T17:24:57;10.00;99.90
49032;DHT22;63443;48.366;10.876;2022-12-29T17:27:30;10.10;99.90
49032;DHT22;63443;48.366;10.876;2022-12-29T17:29:58;10.00;99.90
49032;DHT22;63443;48.366;10.876;2022-12-29T17:32:25;10.20;99.90
49032;DHT22;63443;48.366;10.876;2022-12-29T17:34:50;10.20;99.90
49032;DHT22;63443;48.366;10.876;2022-12-29T17:37:26;10.10;99.90
49032;DHT22;63443;48.366;10.876;2022-12-29T17:39:52;10.10;99.90
49032;DHT22;63443;48.366;10.876;2022-12-29T17:42:18;10.00;99.90
49032;DHT22;63443;48.366;10.876;2022-12-29T17:44:44;9.90;99.90
49032;DHT22;63443;48.366;10.876;2022-12-29T17:47:09;9.90;99.90
49032;DHT22;63443;48.366;10.876;2022-12-29T17:49:35;9.90;99.90
49032;DHT22;63443;48.366;10.876;2022-12-29T17:52:01;9.80;99.90
49032;DHT22;63443;48.366;10.876;2022-12-29T17:54:26;9.80;99.90
49032;DHT22;63443;48.366;10.876;2022-12-29T17:56:52;9.90;99.90
49032;DHT22;63443;48.366;10.876;2022-12-29T17:59:17;10.00;99.90
49032;DHT22;63443;48.366;10.876;2022-12-29T18:01:45;10.00;99.90
49032;DHT22;63443;48.366;10.876;2022-12-29T18:04:12;10.00;99.90
49032;DHT22;63443;48.366;10.876;2022-12-29T18:06:38;10.10;99.90
49032;DHT22;63443;48.366;10.876;2022-12-29T18:09:03;10.10;99.90
49032;DHT22;63443;48.366;10.876;2022-12-29T18:11:33;10.10;99.90
49032;DHT22;63443;48.366;10.876;2022-12-29T18:13:58;10.10;99.90
49032;DHT22;63443;48.366;10.876;2022-12-29T18:16:24;10.10;99.90
49032;DHT22;63443;48.366;10.876;2022-12-29T18:18:50;10.10;99.90
49032;DHT22;63443;48.366;10.876;2022-12-29T18:21:16;10.00;99.90
49032;DHT22;63443;48.366;10.876;2022-12-29T18:23:42;10.00;99.90
49032;DHT22;63443;48.366;10.876;2022-12-29T18:28:36;9.90;99.90
49032;DHT22;63443;48.366;10.876;2022-12-29T18:31:01;9.90;99.90
49032;DHT22;63443;48.366;10.876;2022-12-29T18:33:27;10.00;99.90
49032;DHT22;63443;48.366;10.876;2022-12-29T18:36:00;10.00;99.90
49032;DHT22;63443;48.366;10.876;2022-12-29T18:38:26;10.00;99.90
49032;DHT22;63443;48.366;10.876;2022-12-29T18:40:52;9.90;99.90
49032;DHT22;63443;48.366;10.876;2022-12-29T18:43:18;9.90;99.90
49032;DHT22;63443;48.366;10.876;2022-12-29T18:45:43;9.80;99.90
49032;DHT22;63443;48.366;10.876;2022-12-29T18:48:12;9.80;99.90
49032;DHT22;63443;48.366;10.876;2022-12-29T18:50:38;9.80;99.90
49032;DHT22;63443;48.366;10.876;2022-12-29T18:53:03;9.80;99.90
49032;DHT22;63443;48.366;10.876;2022-12-29T18:55:29;9.80;99.90
49032;DHT22;63443;48.366;10.876;2022-12-29T18:57:54;9.90;99.90
49032;DHT22;63443;48.366;10.876;2022-12-29T19:00:20;9.80;99.90
49032;DHT22;63443;48.366;10.876;2022-12-29T19:02:47;9.80;99.90
49032;DHT22;63443;48.366;10.876;2022-12-29T19:05:20;9.70;99.90
49032;DHT22;63443;48.366;10.876;2022-12-29T19:07:46;9.70;99.90
49032;DHT22;63443;48.366;10.876;2022-12-29T19:10:12;9.70;99.90
49032;DHT22;63443;48.366;10.876;2022-12-29T19:12:37;9.70;99.90
49032;DHT22;63443;48.366;10.876;2022-12-29T19:15:03;9.70;99.90
49032;DHT22;63443;48.366;10.876;2022-12-29T19:17:32;9.70;99.90
49032;DHT22;63443;48.366;10.876;2022-12-29T19:19:57;9.60;99.90
49032;DHT22;63443;48.366;10.876;2022-12-29T19:22:23;9.40;99.90
49032;DHT22;63443;48.366;10.876;2022-12-29T19:24:48;9.40;99.90
49032;DHT22;63443;48.366;10.876;2022-12-29T19:27:14;9.30;99.90
49032;DHT22;63443;48.366;10.876;2022-12-29T19:29:39;9.30;99.90
49032;DHT22;63443;48.366;10.876;2022-12-29T19:32:05;9.30;99.90
49032;DHT22;63443;48.366;10.876;2022-12-29T19:34:30;9.30;99.90
49032;DHT22;63443;48.366;10.876;2022-12-29T19:36:56;9.30;99.90
49032;DHT22;63443;48.366;10.876;2022-12-29T19:39:21;9.30;99.90
49032;DHT22;63443;48.366;10.876;2022-12-29T19:41:46;9.30;99.90
49032;DHT22;63443;48.366;10.876;2022-12-29T19:44:12;9.30;99.90
49032;DHT22;63443;48.366;10.876;2022-12-29T19:46:37;9.40;99.90
49032;DHT22;63443;48.366;10.876;2022-12-29T19:49:03;9.40;99.90
49032;DHT22;63443;48.366;10.876;2022-12-29T19:51:28;9.50;99.90
49032;DHT22;63443;48.366;10.876;2022-12-29T19:53:54;9.60;99.90
49032;DHT22;63443;48.366;10.876;2022-12-29T19:56:19;9.70;99.90
49032;DHT22;63443;48.366;10.876;2022-12-29T19:58:45;9.70;99.90
49032;DHT22;63443;48.366;10.876;2022-12-29T20:01:15;9.70;99.90
49032;DHT22;63443;48.366;10.876;2022-12-29T20:03:40;9.70;99.90